ExpreSS Skopelitis — SW3130 — position and weather

sailwx.info

Track history (hours):
 
Tides and Currents Weather Stations Pressure Air Temp Water Temp Dewpoint Dewpoint Depression Visibility Wind Speed Wind Dir Waves Ship Positions

ExpreSS Skopelitis

Last reported at 2014-Dec-21 08:30 UTC. Time now 2014-Dec-21 09:17 UTC.
Position N 36°50' E 025°52'.

Length 45 m; draft 2.4 m.

Type: Passenger vessel. MMSI: 237029400.

Date/timePositionNaut miles runAvg speedWind from/ knotsBaromVisibWave heightAir tempDewpointWater temp
2014-Dec-21 08:30N 36°50' E 025°52'0 0.0
2014-Dec-21 07:33N 36°50' E 025°52'0 0.0
2014-Dec-21 06:26N 36°50' E 025°52'0 0.0
2014-Dec-21 05:27N 36°50' E 025°52'0 0.0
2014-Dec-21 04:32N 36°50' E 025°52'0 0.0
2014-Dec-21 03:33N 36°50' E 025°52'0 0.0
2014-Dec-21 02:33N 36°50' E 025°52'0 0.0
2014-Dec-21 01:33N 36°50' E 025°52'0 0.0
2014-Dec-21 00:33N 36°50' E 025°52'0 0.0
2014-Dec-20 23:33N 36°50' E 025°52'0 0.0
2014-Dec-20 22:21N 36°50' E 025°52'0 0.0
2014-Dec-20 21:32N 36°50' E 025°52'0 0.0
2014-Dec-20 20:28N 36°50' E 025°52'0 0.0
2014-Dec-20 19:14N 36°50' E 025°52'3 1.5
2014-Dec-20 17:33N 36°52' E 025°53'6 6.1
2014-Dec-20 16:33N 36°58' E 025°54'9 8.7
2014-Dec-20 15:33N 37°05' E 025°46'1212.0
2014-Dec-20 14:33N 36°56' E 025°36'8 7.6
2014-Dec-20 13:33N 36°52' E 025°28'1111.4
2014-Dec-20 12:33N 37°02' E 025°21'5 4.8
2014-Dec-20 11:33N 37°06' E 025°22'0 0.0
2014-Dec-20 10:33N 37°06' E 025°22'4 3.7
2014-Dec-20 09:33N 37°03' E 025°20'1212.1
2014-Dec-20 08:33N 36°53' E 025°28'7 7.0
2014-Dec-20 07:33N 36°56' E 025°36'1110.8
2014-Dec-20 06:33N 37°04' E 025°45'8 7.6
2014-Dec-20 05:33N 36°59' E 025°53'7 7.0
2014-Dec-20 04:33N 36°52' E 025°54'3 3.4
2014-Dec-20 03:33N 36°50' E 025°52'0 0.0
2014-Dec-20 02:33N 36°50' E 025°52'0 0.0
2014-Dec-20 01:14N 36°50' E 025°52'0 0.0
2014-Dec-19 16:22N 36°50' E 025°52'3 3.4
2014-Dec-19 15:33N 36°51' E 025°49'1111.3
2014-Dec-19 14:34N 36°56' E 025°36'7 7.2
2014-Dec-19 13:33N 36°52' E 025°28'1212.0
2014-Dec-19 12:33N 37°02' E 025°21'4 4.3
2014-Dec-19 11:33N 37°06' E 025°22'0 0.0
2014-Dec-19 10:33N 37°06' E 025°22'0 0.0
2014-Dec-19 09:33N 37°06' E 025°22'2 2.3
2014-Dec-19 08:33N 37°05' E 025°20'1211.8
2014-Dec-19 07:33N 36°54' E 025°27'5 5.4
2014-Dec-19 06:33N 36°55' E 025°33'1010.0
2014-Dec-19 05:34N 36°52' E 025°45'4 0.3
2014-Dec-18 15:33N 36°50' E 025°49'1211.9
2014-Dec-18 14:33N 36°56' E 025°36'7 7.1
2014-Dec-18 13:33N 36°52' E 025°28'1312.2
2014-Dec-18 12:31N 37°03' E 025°20'4 3.8
2014-Dec-18 11:32N 37°06' E 025°22'0 0.0
2014-Dec-18 10:32N 37°06' E 025°22'0 0.0
2014-Dec-18 09:32N 37°06' E 025°22'3 2.8
2014-Dec-18 08:33N 37°05' E 025°20'1211.9
2014-Dec-18 07:32N 36°54' E 025°27'6 5.9
2014-Dec-18 06:33N 36°55' E 025°34'10 9.7
2014-Dec-18 05:33N 36°52' E 025°46'5 4.5
2014-Dec-18 04:19N 36°50' E 025°52'0 0.0
2014-Dec-17 18:12N 36°50' E 025°52'4 6.9
2014-Dec-17 17:33N 36°53' E 025°56'7 7.4
2014-Dec-17 16:33N 36°60' E 025°53'7 7.0
2014-Dec-17 15:33N 37°03' E 025°45'1110.5
2014-Dec-17 14:33N 36°56' E 025°36'7 7.0
2014-Dec-17 13:33N 36°52' E 025°28'1211.7
2014-Dec-17 12:33N 37°02' E 025°21'4 4.4
2014-Dec-17 11:33N 37°06' E 025°22'0 0.0
2014-Dec-17 10:33N 37°06' E 025°22'3 3.2
2014-Dec-17 09:33N 37°04' E 025°20'1212.2
2014-Dec-17 08:33N 36°53' E 025°28'7 6.9
2014-Dec-17 07:33N 36°56' E 025°36'1010.4
2014-Dec-17 06:33N 37°03' E 025°45'7 7.3
2014-Dec-17 05:33N 36°60' E 025°53'8 7.5
2014-Dec-17 04:31N 36°52' E 025°53'3 0.3
2014-Dec-16 19:32N 36°50' E 025°52'0 0.0
2014-Dec-16 17:30N 36°50' E 025°52'0 0.0
2014-Dec-16 16:22N 36°50' E 025°52'2 2.1
2014-Dec-16 15:33N 36°50' E 025°50'1212.3
2014-Dec-16 14:33N 36°56' E 025°36'7 7.4
2014-Dec-16 13:33N 36°52' E 025°28'1111.4
2014-Dec-16 12:33N 37°02' E 025°21'5 4.8
2014-Dec-16 11:33N 37°06' E 025°22'0 0.0
2014-Dec-16 10:33N 37°06' E 025°22'0 0.0
2014-Dec-16 09:33N 37°06' E 025°22'2 1.9
2014-Dec-16 08:33N 37°05' E 025°20'1211.7
2014-Dec-16 07:33N 36°55' E 025°26'6 5.7
2014-Dec-16 06:33N 36°55' E 025°33'1010.1
2014-Dec-16 05:33N 36°52' E 025°46'6 4.6
2014-Dec-16 04:21N 36°50' E 025°52'0 0.0
2014-Dec-16 03:30N 36°50' E 025°52'0 0.0
2014-Dec-16 00:07N 36°50' E 025°52'0 0.0
2014-Dec-15 21:04N 36°50' E 025°52'0 0.0
2014-Dec-15 19:25N 36°50' E 025°52'3 1.6
2014-Dec-15 17:33N 36°52' E 025°54'6 6.3
2014-Dec-15 16:33N 36°59' E 025°53'8 7.9
2014-Dec-15 15:33N 37°04' E 025°46'1111.3
2014-Dec-15 14:33N 36°56' E 025°36'7 7.4
2014-Dec-15 13:33N 36°52' E 025°28'1211.8
2014-Dec-15 12:33N 37°02' E 025°21'5 4.6
2014-Dec-15 11:33N 37°06' E 025°22'0 0.0
2014-Dec-15 10:33N 37°06' E 025°22'3 3.4
2014-Dec-15 09:33N 37°03' E 025°20'1211.9
2014-Dec-15 08:33N 36°53' E 025°28'7 6.8
2014-Dec-15 07:33N 36°56' E 025°36'1110.6
2014-Dec-15 06:33N 37°03' E 025°45'8 7.6
2014-Dec-15 05:33N 36°60' E 025°53'7 7.2
2014-Dec-15 04:33N 36°52' E 025°54'3 1.1
2014-Dec-15 01:25N 36°50' E 025°52'0 0.0
2014-Dec-14 23:04N 36°50' E 025°52'0 0.0
2014-Dec-14 19:09N 36°50' E 025°52'0 0.0
2014-Dec-14 17:16N 36°50' E 025°52'0 0.0
2014-Dec-14 13:22N 36°50' E 025°52'0 0.0
2014-Dec-14 12:30N 36°50' E 025°52'0 0.0
2014-Dec-14 10:32N 36°50' E 025°52'0 0.0
2014-Dec-14 09:18N 36°50' E 025°52'0 0.0
2014-Dec-14 06:08N 36°50' E 025°52'0 0.0
2014-Dec-14 05:26N 36°50' E 025°52'0 0.0
2014-Dec-14 01:32N 36°50' E 025°52'0 0.0
2014-Dec-14 00:32N 36°50' E 025°52'0 0.0
2014-Dec-13 22:07N 36°50' E 025°52'0 0.0
2014-Dec-13 21:32N 36°50' E 025°52'0 0.0
2014-Dec-13 20:29N 36°50' E 025°52'0 0.0
2014-Dec-13 18:28N 36°50' E 025°52'5 5.1
2014-Dec-13 17:33N 36°53' E 025°56'8 7.6
2014-Dec-13 16:33N 36°60' E 025°52'6 6.2
2014-Dec-13 15:33N 37°03' E 025°45'1010.3
2014-Dec-13 14:33N 36°56' E 025°36'7 7.4
2014-Dec-13 13:33N 36°52' E 025°28'1111.2
2014-Dec-13 12:33N 37°01' E 025°21'5 5.0
2014-Dec-13 11:33N 37°06' E 025°22'0 0.0
2014-Dec-13 10:32N 37°06' E 025°22'5 5.0
2014-Dec-13 09:33N 37°02' E 025°21'1111.3
2014-Dec-13 08:33N 36°52' E 025°28'7 7.4
2014-Dec-13 07:33N 36°56' E 025°36'1212.2
2014-Dec-13 06:33N 37°05' E 025°46'9 9.0
2014-Dec-13 05:33N 36°58' E 025°54'6 5.9
2014-Dec-13 04:33N 36°52' E 025°54'3 3.0
2014-Dec-13 03:33N 36°50' E 025°52'0 0.0
2014-Dec-13 01:30N 36°50' E 025°52'0 0.0
2014-Dec-13 00:33N 36°50' E 025°52'0 0.0
2014-Dec-12 23:33N 36°50' E 025°52'0 0.0
2014-Dec-12 22:33N 36°50' E 025°52'0 0.0
2014-Dec-12 21:34N 36°50' E 025°52'0 0.0
2014-Dec-12 20:34N 36°50' E 025°52'2 0.5
2014-Dec-12 15:34N 36°50' E 025°49'1211.5
2014-Dec-12 14:33N 36°56' E 025°36'7 7.2
2014-Dec-12 13:34N 36°52' E 025°28'1212.0
2014-Dec-12 12:33N 37°02' E 025°21'4 4.2
2014-Dec-12 11:33N 37°06' E 025°22'0 0.0
2014-Dec-12 10:34N 37°06' E 025°22'0 0.0
2014-Dec-12 09:34N 37°06' E 025°22'3 2.8
2014-Dec-12 08:33N 37°04' E 025°20'1211.8
2014-Dec-12 07:33N 36°54' E 025°27'5 5.3
2014-Dec-12 06:33N 36°55' E 025°34'1010.3
2014-Dec-12 05:33N 36°52' E 025°46'5 1.2
2014-Dec-12 01:22N 36°50' E 025°52'0 0.0
2014-Dec-11 23:31N 36°50' E 025°52'0 0.0
2014-Dec-11 22:24N 36°50' E 025°52'0 0.0
2014-Dec-11 21:30N 36°50' E 025°52'0 0.0
2014-Dec-11 20:12N 36°50' E 025°52'0 0.0
2014-Dec-11 19:30N 36°50' E 025°52'0 0.0
2014-Dec-11 18:12N 36°50' E 025°52'0 0.0
2014-Dec-11 17:18N 36°50' E 025°52'0 0.0
2014-Dec-11 16:06N 36°50' E 025°52'510.2
2014-Dec-11 15:34N 36°52' E 025°45'10 9.5
2014-Dec-11 14:33N 36°55' E 025°34'5 5.5
2014-Dec-11 13:34N 36°53' E 025°28'1211.7
2014-Dec-11 12:33N 37°03' E 025°20'4 3.9
2014-Dec-11 11:33N 37°06' E 025°22'0 0.0
2014-Dec-11 10:34N 37°06' E 025°22'0 0.0
2014-Dec-11 09:33N 37°06' E 025°22'2 1.8
2014-Dec-11 08:34N 37°06' E 025°20'  
Track history (hours):
 
Tides and Currents Weather Stations Pressure Air Temp Water Temp Dewpoint Dewpoint Depression Visibility Wind Speed Wind Dir Waves Ship Positions

ExpreSS Skopelitis

Last reported at 2014-Dec-21 08:30 UTC. Time now 2014-Dec-21 09:17 UTC.
Position N 36°50' E 025°52'.

Length 45 m; draft 2.4 m.

Type: Passenger vessel. MMSI: 237029400.

Date/timePositionNaut miles runAvg speedWind from/ knotsBaromVisibWave heightAir tempDewpointWater temp
2014-Dec-21 08:30N 36°50' E 025°52'0 0.0
2014-Dec-21 07:33N 36°50' E 025°52'0 0.0
2014-Dec-21 06:26N 36°50' E 025°52'0 0.0
2014-Dec-21 05:27N 36°50' E 025°52'0 0.0
2014-Dec-21 04:32N 36°50' E 025°52'0 0.0
2014-Dec-21 03:33N 36°50' E 025°52'0 0.0
2014-Dec-21 02:33N 36°50' E 025°52'0 0.0
2014-Dec-21 01:33N 36°50' E 025°52'0 0.0
2014-Dec-21 00:33N 36°50' E 025°52'0 0.0
2014-Dec-20 23:33N 36°50' E 025°52'0 0.0
2014-Dec-20 22:21N 36°50' E 025°52'0 0.0
2014-Dec-20 21:32N 36°50' E 025°52'0 0.0
2014-Dec-20 20:28N 36°50' E 025°52'0 0.0
2014-Dec-20 19:14N 36°50' E 025°52'3 1.5
2014-Dec-20 17:33N 36°52' E 025°53'6 6.1
2014-Dec-20 16:33N 36°58' E 025°54'9 8.7
2014-Dec-20 15:33N 37°05' E 025°46'1212.0
2014-Dec-20 14:33N 36°56' E 025°36'8 7.6
2014-Dec-20 13:33N 36°52' E 025°28'1111.4
2014-Dec-20 12:33N 37°02' E 025°21'5 4.8
2014-Dec-20 11:33N 37°06' E 025°22'0 0.0
2014-Dec-20 10:33N 37°06' E 025°22'4 3.7
2014-Dec-20 09:33N 37°03' E 025°20'1212.1
2014-Dec-20 08:33N 36°53' E 025°28'7 7.0
2014-Dec-20 07:33N 36°56' E 025°36'1110.8
2014-Dec-20 06:33N 37°04' E 025°45'8 7.6
2014-Dec-20 05:33N 36°59' E 025°53'7 7.0
2014-Dec-20 04:33N 36°52' E 025°54'3 3.4
2014-Dec-20 03:33N 36°50' E 025°52'0 0.0
2014-Dec-20 02:33N 36°50' E 025°52'0 0.0
2014-Dec-20 01:14N 36°50' E 025°52'0 0.0
2014-Dec-19 16:22N 36°50' E 025°52'3 3.4
2014-Dec-19 15:33N 36°51' E 025°49'1111.3
2014-Dec-19 14:34N 36°56' E 025°36'7 7.2
2014-Dec-19 13:33N 36°52' E 025°28'1212.0
2014-Dec-19 12:33N 37°02' E 025°21'4 4.3
2014-Dec-19 11:33N 37°06' E 025°22'0 0.0
2014-Dec-19 10:33N 37°06' E 025°22'0 0.0
2014-Dec-19 09:33N 37°06' E 025°22'2 2.3
2014-Dec-19 08:33N 37°05' E 025°20'1211.8
2014-Dec-19 07:33N 36°54' E 025°27'5 5.4
2014-Dec-19 06:33N 36°55' E 025°33'1010.0
2014-Dec-19 05:34N 36°52' E 025°45'4 0.3
2014-Dec-18 15:33N 36°50' E 025°49'1211.9
2014-Dec-18 14:33N 36°56' E 025°36'7 7.1
2014-Dec-18 13:33N 36°52' E 025°28'1312.2
2014-Dec-18 12:31N 37°03' E 025°20'4 3.8
2014-Dec-18 11:32N 37°06' E 025°22'0 0.0
2014-Dec-18 10:32N 37°06' E 025°22'0 0.0
2014-Dec-18 09:32N 37°06' E 025°22'3 2.8
2014-Dec-18 08:33N 37°05' E 025°20'1211.9
2014-Dec-18 07:32N 36°54' E 025°27'6 5.9
2014-Dec-18 06:33N 36°55' E 025°34'10 9.7
2014-Dec-18 05:33N 36°52' E 025°46'5 4.5
2014-Dec-18 04:19N 36°50' E 025°52'0 0.0
2014-Dec-17 18:12N 36°50' E 025°52'4 6.9
2014-Dec-17 17:33N 36°53' E 025°56'7 7.4
2014-Dec-17 16:33N 36°60' E 025°53'7 7.0
2014-Dec-17 15:33N 37°03' E 025°45'1110.5
2014-Dec-17 14:33N 36°56' E 025°36'7 7.0
2014-Dec-17 13:33N 36°52' E 025°28'1211.7
2014-Dec-17 12:33N 37°02' E 025°21'4 4.4
2014-Dec-17 11:33N 37°06' E 025°22'0 0.0
2014-Dec-17 10:33N 37°06' E 025°22'3 3.2
2014-Dec-17 09:33N 37°04' E 025°20'1212.2
2014-Dec-17 08:33N 36°53' E 025°28'7 6.9
2014-Dec-17 07:33N 36°56' E 025°36'1010.4
2014-Dec-17 06:33N 37°03' E 025°45'7 7.3
2014-Dec-17 05:33N 36°60' E 025°53'8 7.5
2014-Dec-17 04:31N 36°52' E 025°53'3 0.3
2014-Dec-16 19:32N 36°50' E 025°52'0 0.0
2014-Dec-16 17:30N 36°50' E 025°52'0 0.0
2014-Dec-16 16:22N 36°50' E 025°52'2 2.1
2014-Dec-16 15:33N 36°50' E 025°50'1212.3
2014-Dec-16 14:33N 36°56' E 025°36'7 7.4
2014-Dec-16 13:33N 36°52' E 025°28'1111.4
2014-Dec-16 12:33N 37°02' E 025°21'5 4.8
2014-Dec-16 11:33N 37°06' E 025°22'0 0.0
2014-Dec-16 10:33N 37°06' E 025°22'0 0.0
2014-Dec-16 09:33N 37°06' E 025°22'2 1.9
2014-Dec-16 08:33N 37°05' E 025°20'1211.7
2014-Dec-16 07:33N 36°55' E 025°26'6 5.7
2014-Dec-16 06:33N 36°55' E 025°33'1010.1
2014-Dec-16 05:33N 36°52' E 025°46'6 4.6
2014-Dec-16 04:21N 36°50' E 025°52'0 0.0
2014-Dec-16 03:30N 36°50' E 025°52'0 0.0
2014-Dec-16 00:07N 36°50' E 025°52'0 0.0
2014-Dec-15 21:04N 36°50' E 025°52'0 0.0
2014-Dec-15 19:25N 36°50' E 025°52'3 1.6
2014-Dec-15 17:33N 36°52' E 025°54'6 6.3
2014-Dec-15 16:33N 36°59' E 025°53'8 7.9
2014-Dec-15 15:33N 37°04' E 025°46'1111.3
2014-Dec-15 14:33N 36°56' E 025°36'7 7.4
2014-Dec-15 13:33N 36°52' E 025°28'1211.8
2014-Dec-15 12:33N 37°02' E 025°21'5 4.6
2014-Dec-15 11:33N 37°06' E 025°22'0 0.0
2014-Dec-15 10:33N 37°06' E 025°22'3 3.4
2014-Dec-15 09:33N 37°03' E 025°20'1211.9
2014-Dec-15 08:33N 36°53' E 025°28'7 6.8
2014-Dec-15 07:33N 36°56' E 025°36'1110.6
2014-Dec-15 06:33N 37°03' E 025°45'8 7.6
2014-Dec-15 05:33N 36°60' E 025°53'7 7.2
2014-Dec-15 04:33N 36°52' E 025°54'3 1.1
2014-Dec-15 01:25N 36°50' E 025°52'0 0.0
2014-Dec-14 23:04N 36°50' E 025°52'0 0.0
2014-Dec-14 19:09N 36°50' E 025°52'0 0.0
2014-Dec-14 17:16N 36°50' E 025°52'0 0.0
2014-Dec-14 13:22N 36°50' E 025°52'0 0.0
2014-Dec-14 12:30N 36°50' E 025°52'0 0.0
2014-Dec-14 10:32N 36°50' E 025°52'0 0.0
2014-Dec-14 09:18N 36°50' E 025°52'0 0.0
2014-Dec-14 06:08N 36°50' E 025°52'0 0.0
2014-Dec-14 05:26N 36°50' E 025°52'0 0.0
2014-Dec-14 01:32N 36°50' E 025°52'0 0.0
2014-Dec-14 00:32N 36°50' E 025°52'0 0.0
2014-Dec-13 22:07N 36°50' E 025°52'0 0.0
2014-Dec-13 21:32N 36°50' E 025°52'0 0.0
2014-Dec-13 20:29N 36°50' E 025°52'0 0.0
2014-Dec-13 18:28N 36°50' E 025°52'5 5.1
2014-Dec-13 17:33N 36°53' E 025°56'8 7.6
2014-Dec-13 16:33N 36°60' E 025°52'6 6.2
2014-Dec-13 15:33N 37°03' E 025°45'1010.3
2014-Dec-13 14:33N 36°56' E 025°36'7 7.4
2014-Dec-13 13:33N 36°52' E 025°28'1111.2
2014-Dec-13 12:33N 37°01' E 025°21'5 5.0
2014-Dec-13 11:33N 37°06' E 025°22'0 0.0
2014-Dec-13 10:32N 37°06' E 025°22'5 5.0
2014-Dec-13 09:33N 37°02' E 025°21'1111.3
2014-Dec-13 08:33N 36°52' E 025°28'7 7.4
2014-Dec-13 07:33N 36°56' E 025°36'1212.2
2014-Dec-13 06:33N 37°05' E 025°46'9 9.0
2014-Dec-13 05:33N 36°58' E 025°54'6 5.9
2014-Dec-13 04:33N 36°52' E 025°54'3 3.0
2014-Dec-13 03:33N 36°50' E 025°52'0 0.0
2014-Dec-13 01:30N 36°50' E 025°52'0 0.0
2014-Dec-13 00:33N 36°50' E 025°52'0 0.0
2014-Dec-12 23:33N 36°50' E 025°52'0 0.0
2014-Dec-12 22:33N 36°50' E 025°52'0 0.0
2014-Dec-12 21:34N 36°50' E 025°52'0 0.0
2014-Dec-12 20:34N 36°50' E 025°52'2 0.5
2014-Dec-12 15:34N 36°50' E 025°49'1211.5
2014-Dec-12 14:33N 36°56' E 025°36'7 7.2
2014-Dec-12 13:34N 36°52' E 025°28'1212.0
2014-Dec-12 12:33N 37°02' E 025°21'4 4.2
2014-Dec-12 11:33N 37°06' E 025°22'0 0.0
2014-Dec-12 10:34N 37°06' E 025°22'0 0.0
2014-Dec-12 09:34N 37°06' E 025°22'3 2.8
2014-Dec-12 08:33N 37°04' E 025°20'1211.8
2014-Dec-12 07:33N 36°54' E 025°27'5 5.3
2014-Dec-12 06:33N 36°55' E 025°34'1010.3
2014-Dec-12 05:33N 36°52' E 025°46'5 1.2
2014-Dec-12 01:22N 36°50' E 025°52'0 0.0
2014-Dec-11 23:31N 36°50' E 025°52'0 0.0
2014-Dec-11 22:24N 36°50' E 025°52'0 0.0
2014-Dec-11 21:30N 36°50' E 025°52'0 0.0
2014-Dec-11 20:12N 36°50' E 025°52'0 0.0
2014-Dec-11 19:30N 36°50' E 025°52'0 0.0
2014-Dec-11 18:12N 36°50' E 025°52'0 0.0
2014-Dec-11 17:18N 36°50' E 025°52'0 0.0
2014-Dec-11 16:06N 36°50' E 025°52'510.2
2014-Dec-11 15:34N 36°52' E 025°45'10 9.5
2014-Dec-11 14:33N 36°55' E 025°34'5 5.5
2014-Dec-11 13:34N 36°53' E 025°28'1211.7
2014-Dec-11 12:33N 37°03' E 025°20'4 3.9
2014-Dec-11 11:33N 37°06' E 025°22'0 0.0
2014-Dec-11 10:34N 37°06' E 025°22'0 0.0
2014-Dec-11 09:33N 37°06' E 025°22'2 1.8
2014-Dec-11 08:34N 37°06' E 025°20'  

Dump ship's entire track history